Time;durP1;ratioP1;P1;durP2;ratioP2;P2;SDS_P1;SDS_P2;PMS_P1;PMS_P2;Temp;Humidity;BMP_temperature;BMP_pressure;BME280_temperature;BME280_humidity;BME280_pressure;Samples;Min_cycle;Max_cycle;Signal;HPM_P1;HPM_P2
2023/09/26 00:00:40;;;;;;;20.40;17.90;;;;;;;15.64;100.00;97646.16;111632;1244;22556;-74
2023/09/26 00:03:28;;;;;;;20.90;15.70;;;;;;;15.64;100.00;97645.41;111574;1244;22522;-75
2023/09/26 00:06:02;;;;;;;20.00;16.70;;;;;;;15.64;100.00;97641.66;111597;1244;22721;-74
2023/09/26 00:08:30;;;;;;;19.60;15.70;;;;;;;15.63;100.00;97640.92;111633;1244;22484;-75
2023/09/26 00:10:59;;;;;;;21.00;16.70;;;;;;;15.65;100.00;97643.30;111626;1244;22491;-75
2023/09/26 00:13:29;;;;;;;19.40;17.20;;;;;;;15.65;100.00;97642.88;111567;1244;22686;-76
2023/09/26 00:15:58;;;;;;;24.10;17.90;;;;;;;15.64;100.00;97642.36;111592;1243;25262;-74
2023/09/26 00:18:27;;;;;;;25.30;18.80;;;;;;;15.64;100.00;97641.23;111556;1244;22580;-74
2023/09/26 00:20:58;;;;;;;23.50;18.30;;;;;;;15.64;100.00;97640.80;111608;1244;24284;-74
2023/09/26 00:23:27;;;;;;;26.00;16.50;;;;;;;15.65;100.00;97641.21;111611;1244;25251;-74
2023/09/26 00:25:58;;;;;;;21.60;16.80;;;;;;;15.64;100.00;97637.86;111613;1244;24192;-74
2023/09/26 00:28:27;;;;;;;21.20;17.90;;;;;;;15.64;100.00;97638.83;111595;1244;22611;-75
2023/09/26 00:30:56;;;;;;;19.60;16.60;;;;;;;15.64;100.00;97639.20;111596;1244;25160;-74
2023/09/26 00:33:27;;;;;;;23.10;16.30;;;;;;;15.64;100.00;97638.39;111577;1242;22537;-75
2023/09/26 00:36:05;;;;;;;18.10;15.80;;;;;;;15.65;100.00;97635.45;111598;1243;22516;-74
2023/09/26 00:38:33;;;;;;;21.40;16.50;;;;;;;15.64;100.00;97635.46;111577;1234;23192;-74
2023/09/26 00:41:01;;;;;;;23.90;17.90;;;;;;;15.64;100.00;97636.10;111613;1244;22498;-75
2023/09/26 00:43:31;;;;;;;22.60;18.10;;;;;;;15.64;100.00;97632.14;111576;1244;24185;-75
2023/09/26 00:46:04;;;;;;;22.60;18.60;;;;;;;15.64;100.00;97633.00;111610;1244;22517;-74
2023/09/26 00:48:36;;;;;;;21.30;17.90;;;;;;;15.64;100.00;97632.04;111604;1244;25430;-75
2023/09/26 00:51:07;;;;;;;19.30;17.10;;;;;;;15.64;100.00;97633.48;111588;1244;22498;-74
2023/09/26 00:53:43;;;;;;;19.80;17.00;;;;;;;15.63;100.00;97633.87;111607;1237;22521;-74
2023/09/26 00:56:12;;;;;;;19.80;16.60;;;;;;;15.62;100.00;97635.79;111638;1244;22617;-74
2023/09/26 00:58:42;;;;;;;19.90;17.00;;;;;;;15.61;100.00;97632.91;111622;1244;24218;-74
2023/09/26 01:01:10;;;;;;;18.50;16.40;;;;;;;15.61;100.00;97633.28;111617;1244;22501;-74
2023/09/26 01:03:39;;;;;;;23.20;18.20;;;;;;;15.61;100.00;97635.42;111585;1244;23756;-75
2023/09/26 01:06:09;;;;;;;21.80;16.20;;;;;;;15.60;100.00;97633.52;111626;1244;22561;-74
2023/09/26 01:08:37;;;;;;;17.10;14.40;;;;;;;15.59;100.00;97632.11;111655;1244;23983;-74
2023/09/26 01:11:06;;;;;;;18.70;15.40;;;;;;;15.59;100.00;97632.64;111627;1244;23044;-74
2023/09/26 01:13:36;;;;;;;21.70;17.30;;;;;;;15.57;100.00;97638.39;111561;1244;22504;-74
2023/09/26 01:16:18;;;;;;;19.40;16.10;;;;;;;15.55;100.00;97636.55;111660;1244;22701;-74
2023/09/26 01:18:47;;;;;;;18.50;15.40;;;;;;;15.54;100.00;97636.55;111600;1244;24165;-74
2023/09/26 01:21:16;;;;;;;22.20;14.90;;;;;;;15.52;100.00;97634.88;111610;1244;22529;-74
2023/09/26 01:23:49;;;;;;;17.70;14.30;;;;;;;15.49;100.00;97629.18;111558;1244;22500;-74
2023/09/26 01:26:18;;;;;;;17.60;13.80;;;;;;;15.48;100.00;97631.16;111619;1244;26631;-74
2023/09/26 01:28:46;;;;;;;18.10;14.80;;;;;;;15.45;100.00;97625.09;111589;1244;22471;-74
2023/09/26 01:31:16;;;;;;;17.40;15.10;;;;;;;15.45;100.00;97621.35;111631;1244;22505;-74
2023/09/26 01:33:44;;;;;;;17.40;15.30;;;;;;;15.45;100.00;97616.54;111544;1244;23149;-74
2023/09/26 01:36:12;;;;;;;16.50;13.50;;;;;;;15.44;100.00;97616.02;111624;1244;22588;-74
2023/09/26 01:38:41;;;;;;;14.40;12.20;;;;;;;15.39;100.00;97613.52;111605;1244;22509;-74
2023/09/26 01:41:10;;;;;;;19.20;11.00;;;;;;;15.34;100.00;97616.73;111616;1244;26525;-74
2023/09/26 01:43:39;;;;;;;12.60;11.00;;;;;;;15.26;100.00;97614.67;111605;1244;22584;-74
2023/09/26 01:46:10;;;;;;;16.20;10.70;;;;;;;15.14;100.00;97610.73;111612;1244;24309;-74
2023/09/26 01:48:38;;;;;;;12.10;10.60;;;;;;;15.09;100.00;97609.52;111598;1244;22498;-74
2023/09/26 01:51:09;;;;;;;17.30;10.10;;;;;;;15.08;100.00;97612.36;111596;1237;22552;-74
2023/09/26 01:53:40;;;;;;;101.30;14.80;;;;;;;15.02;100.00;97610.38;111601;1244;22682;-74
2023/09/26 01:56:08;;;;;;;110.00;13.10;;;;;;;14.94;100.00;97605.80;111611;1244;23665;-74
2023/09/26 01:58:37;;;;;;;143.10;14.10;;;;;;;14.88;100.00;97607.99;111591;1244;23731;-74
2023/09/26 02:01:09;;;;;;;101.60;11.80;;;;;;;14.86;100.00;97606.41;111609;1244;22506;-74
2023/09/26 02:03:37;;;;;;;98.00;10.90;;;;;;;14.84;100.00;97607.23;111611;1244;22964;-75
2023/09/26 02:06:08;;;;;;;65.50;9.00;;;;;;;14.79;100.00;97604.14;111614;1244;25399;-74
2023/09/26 02:08:36;;;;;;;58.40;9.70;;;;;;;14.69;100.00;97603.53;111618;1244;23031;-74
2023/09/26 02:11:04;;;;;;;53.00;9.00;;;;;;;14.60;100.00;97608.06;111613;1244;22500;-74
2023/09/26 02:13:32;;;;;;;42.50;9.00;;;;;;;14.53;100.00;97602.00;111586;1244;22505;-75
2023/09/26 02:16:09;;;;;;;25.90;9.00;;;;;;;14.51;100.00;97598.61;111604;1244;22514;-74
2023/09/26 02:18:37;;;;;;;14.50;8.60;;;;;;;14.51;100.00;97597.81;111609;1244;22498;-75
2023/09/26 02:21:08;;;;;;;12.40;8.70;;;;;;;14.47;100.00;97591.41;111658;1244;22569;-74
2023/09/26 02:23:39;;;;;;;36.70;7.80;;;;;;;14.43;100.00;97595.44;111592;1244;25909;-75
2023/09/26 02:26:07;;;;;;;36.50;8.30;;;;;;;14.35;100.00;97591.38;111596;1244;22524;-74
2023/09/26 02:28:38;;;;;;;12.70;8.80;;;;;;;14.22;100.00;97597.76;111641;1244;22664;-74
2023/09/26 02:31:07;;;;;;;16.10;9.70;;;;;;;14.11;100.00;97593.46;111618;1244;22496;-74
2023/09/26 02:33:35;;;;;;;14.10;10.10;;;;;;;14.02;100.00;97597.23;111609;1244;23719;-74
2023/09/26 02:36:11;;;;;;;13.20;9.50;;;;;;;14.00;100.00;97595.70;111621;1244;22503;-74
2023/09/26 02:38:39;;;;;;;15.10;10.00;;;;;;;13.94;100.00;97597.88;111609;1244;22510;-74
2023/09/26 02:41:11;;;;;;;12.40;9.10;;;;;;;13.87;100.00;97599.83;111624;1244;22507;-75
2023/09/26 02:43:40;;;;;;;11.60;8.90;;;;;;;13.92;100.00;97601.30;111562;1244;26572;-74
2023/09/26 02:46:08;;;;;;;12.40;9.70;;;;;;;14.07;100.00;97603.98;111592;1244;22507;-74
2023/09/26 02:48:36;;;;;;;12.90;9.90;;;;;;;14.19;100.00;97605.98;111624;1244;25411;-74
2023/09/26 02:51:08;;;;;;;11.90;9.90;;;;;;;14.24;100.00;97601.05;111637;1244;22526;-74
2023/09/26 02:53:36;;;;;;;13.20;8.90;;;;;;;14.32;100.00;97592.14;111615;1244;26631;-75
2023/09/26 02:56:09;;;;;;;13.30;10.20;;;;;;;14.38;100.00;97591.36;111609;1244;22516;-74
2023/09/26 02:58:37;;;;;;;12.10;9.10;;;;;;;14.31;100.00;97588.90;111636;1244;25445;-74
2023/09/26 03:01:06;;;;;;;14.00;9.10;;;;;;;14.33;100.00;97589.30;111629;1244;22610;-74
2023/09/26 03:03:34;;;;;;;13.20;9.20;;;;;;;14.46;100.00;97588.64;111614;1244;25536;-74
2023/09/26 03:06:02;;;;;;;13.50;9.30;;;;;;;14.51;100.00;97582.54;111638;1244;22495;-74
2023/09/26 03:08:31;;;;;;;11.40;9.20;;;;;;;14.54;100.00;97580.38;111624;1244;22504;-74
2023/09/26 03:11:00;;;;;;;12.40;9.40;;;;;;;14.53;100.00;97578.47;111635;1244;25245;-74
2023/09/26 03:13:33;;;;;;;12.90;8.80;;;;;;;14.51;100.00;97572.61;111580;1244;22484;-74
2023/09/26 03:16:02;;;;;;;9.60;8.50;;;;;;;14.51;100.00;97575.55;111654;1244;22537;-74
2023/09/26 03:18:30;;;;;;;10.20;8.20;;;;;;;14.49;100.00;97573.38;111630;1244;24242;-74
2023/09/26 03:21:01;;;;;;;12.30;8.50;;;;;;;14.45;100.00;97576.49;111610;1244;26522;-75
2023/09/26 03:23:31;;;;;;;12.40;8.90;;;;;;;14.41;100.00;97579.76;111591;1244;22515;-74
2023/09/26 03:26:00;;;;;;;12.70;8.20;;;;;;;14.40;100.00;97581.31;111640;1244;24976;-74
2023/09/26 03:28:29;;;;;;;10.50;7.60;;;;;;;14.37;100.00;97580.70;111642;1244;22864;-74
2023/09/26 03:30:57;;;;;;;14.20;8.80;;;;;;;14.32;100.00;97575.17;111625;1244;22513;-74
2023/09/26 03:33:26;;;;;;;10.60;7.70;;;;;;;14.27;100.00;97575.54;111624;1244;22540;-74
2023/09/26 03:35:57;;;;;;;10.90;8.00;;;;;;;14.25;100.00;97580.03;111655;1244;23826;-74
2023/09/26 03:38:26;;;;;;;12.80;8.80;;;;;;;14.24;100.00;97581.42;111637;1244;22504;-74
2023/09/26 03:40:58;;;;;;;12.20;9.30;;;;;;;14.28;100.00;97576.91;111643;1244;22502;-74
2023/09/26 03:43:26;;;;;;;17.70;10.00;;;;;;;14.35;100.00;97579.16;111603;1244;22540;-74
2023/09/26 03:46:00;;;;;;;13.80;9.90;;;;;;;14.41;100.00;97575.11;111648;1244;24027;-74
2023/09/26 03:48:29;;;;;;;13.70;10.50;;;;;;;14.46;100.00;97574.23;111646;1244;22506;-74
2023/09/26 03:51:09;;;;;;;13.90;11.00;;;;;;;14.50;100.00;97570.20;111667;1244;22535;-74
2023/09/26 03:53:40;;;;;;;12.90;9.80;;;;;;;14.55;100.00;97575.94;111650;1244;23477;-74
2023/09/26 03:56:09;;;;;;;16.80;10.10;;;;;;;14.58;100.00;97577.94;111640;1244;25327;-74
2023/09/26 03:58:38;;;;;;;11.40;8.70;;;;;;;14.57;100.00;97576.92;111628;1244;25225;-74
2023/09/26 04:01:11;;;;;;;11.00;9.30;;;;;;;14.51;100.00;97578.27;111627;1244;23722;-74
2023/09/26 04:03:42;;;;;;;10.10;8.50;;;;;;;14.46;100.00;97579.99;111628;1244;22532;-74
2023/09/26 04:06:11;;;;;;;12.90;9.10;;;;;;;14.43;100.00;97577.02;111730;1244;24341;-74
2023/09/26 04:08:40;;;;;;;11.80;8.90;;;;;;;14.42;100.00;97579.64;111715;1244;25430;-74
2023/09/26 04:11:14;;;;;;;11.50;8.80;;;;;;;14.41;100.00;97579.92;111628;1244;24276;-74
2023/09/26 04:13:42;;;;;;;11.30;9.70;;;;;;;14.42;100.00;97580.92;111631;1244;24191;-74
2023/09/26 04:16:11;;;;;;;14.20;10.00;;;;;;;14.43;100.00;97582.46;111644;1244;25442;-74
2023/09/26 04:18:39;;;;;;;13.10;9.70;;;;;;;14.42;100.00;97581.13;111644;1244;25810;-74
2023/09/26 04:21:08;;;;;;;12.60;9.50;;;;;;;14.44;100.00;97580.27;111627;1244;22520;-74
2023/09/26 04:23:37;;;;;;;13.00;8.90;;;;;;;14.46;100.00;97579.64;111617;1244;22524;-74
2023/09/26 04:26:13;;;;;;;14.60;10.30;;;;;;;14.45;100.00;97580.76;111658;1244;22493;-74
2023/09/26 04:28:43;;;;;;;11.70;9.60;;;;;;;14.48;100.00;97582.08;111610;1244;26557;-74
2023/09/26 04:31:16;;;;;;;13.60;10.10;;;;;;;14.49;100.00;97584.13;111483;1244;23883;-74
2023/09/26 04:33:45;;;;;;;14.40;9.80;;;;;;;14.49;100.00;97586.42;111592;1244;22534;-74
2023/09/26 04:36:16;;;;;;;16.30;9.70;;;;;;;14.50;100.00;97587.98;111633;1244;25270;-74
2023/09/26 04:38:45;;;;;;;13.40;9.50;;;;;;;14.52;100.00;97587.97;111663;1244;22542;-74
2023/09/26 04:41:13;;;;;;;13.20;9.10;;;;;;;14.54;100.00;97585.02;111631;1244;22522;-74
2023/09/26 04:43:42;;;;;;;11.80;9.80;;;;;;;14.55;100.00;97589.91;111630;1244;22507;-74
2023/09/26 04:46:14;;;;;;;12.80;9.60;;;;;;;14.59;100.00;97585.66;111633;1244;26404;-73
2023/09/26 04:51:20;;;;;;;11.80;9.40;;;;;;;14.75;100.00;97583.29;113094;1242;22513;-73
2023/09/26 04:53:48;;;;;;;10.90;9.20;;;;;;;14.89;100.00;97584.98;111729;1244;24242;-74
2023/09/26 04:56:17;;;;;;;12.00;9.50;;;;;;;15.03;100.00;97583.13;111791;1244;22492;-73
2023/09/26 04:58:47;;;;;;;10.40;8.90;;;;;;;15.17;100.00;97583.09;111850;1244;22513;-74
2023/09/26 05:01:16;;;;;;;11.10;8.10;;;;;;;15.27;100.00;97584.20;111792;1244;22491;-73
2023/09/26 05:03:45;;;;;;;12.40;9.00;;;;;;;15.34;100.00;97591.30;111798;1244;24170;-74
2023/09/26 05:06:13;;;;;;;;;;;;;;;15.39;100.00;97593.80;111720;1244;22545;-73
2023/09/26 05:08:42;;;;;;;11.30;8.80;;;;;;;15.48;100.00;97602.52;111760;1244;22558;-73
2023/09/26 05:11:14;;;;;;;11.70;8.30;;;;;;;15.58;100.00;97606.52;111798;1244;22594;-74
2023/09/26 05:13:43;;;;;;;10.50;8.10;;;;;;;15.73;100.00;97612.67;111826;1244;22555;-74
2023/09/26 05:16:12;;;;;;;;;;;;;;;15.94;100.00;97618.71;111860;1244;22493;-74
2023/09/26 05:18:41;;;;;;;10.00;8.00;;;;;;;16.22;100.00;97616.93;111845;1244;22506;-73
2023/09/26 05:21:11;;;;;;;12.90;9.10;;;;;;;16.41;100.00;97614.04;111845;1244;22522;-73
2023/09/26 05:23:40;;;;;;;12.80;9.10;;;;;;;16.56;100.00;97608.86;111804;1244;22532;-73
2023/09/26 05:26:09;;;;;;;11.60;8.50;;;;;;;16.62;100.00;97609.42;111854;1244;22515;-73
2023/09/26 05:28:38;;;;;;;11.00;7.70;;;;;;;16.74;100.00;97610.92;111843;1244;22536;-73
2023/09/26 05:31:07;;;;;;;10.80;7.70;;;;;;;16.95;100.00;97611.36;111812;1244;25432;-74
2023/09/26 05:33:35;;;;;;;;;;;;;;;17.20;100.00;97609.64;111841;1244;24862;-73
2023/09/26 05:36:05;;;;;;;9.20;7.20;;;;;;;17.56;100.00;97613.89;111847;1244;22561;-74
2023/09/26 05:38:34;;;;;;;9.40;7.00;;;;;;;17.81;100.00;97617.06;111851;1244;22523;-74
2023/09/26 05:41:02;;;;;;;11.20;6.80;;;;;;;17.83;100.00;97617.51;111844;1244;25373;-73
2023/09/26 05:43:30;;;;;;;10.20;6.80;;;;;;;17.83;100.00;97618.78;111839;1244;22608;-72
2023/09/26 05:45:59;;;;;;;11.40;6.40;;;;;;;17.90;100.00;97616.30;111825;1244;22516;-73
2023/09/26 05:48:28;;;;;;;8.90;5.80;;;;;;;17.93;100.00;97613.33;111845;1244;22509;-72
2023/09/26 05:51:03;;;;;;;11.10;5.60;;;;;;;18.13;100.00;97613.05;111822;1244;22498;-73
2023/09/26 05:53:32;;;;;;;10.10;5.70;;;;;;;18.40;100.00;97615.86;111850;1244;22518;-73
2023/09/26 05:56:04;;;;;;;9.90;6.10;;;;;;;18.64;100.00;97613.73;111824;1244;22555;-73
2023/09/26 05:58:32;;;;;;;7.90;5.40;;;;;;;18.71;100.00;97615.27;111959;1244;22532;-72
2023/09/26 06:01:12;;;;;;;8.10;5.70;;;;;;;18.71;100.00;97614.35;111828;1244;22516;-73
2023/09/26 06:03:39;;;;;;;;;;;;;;;18.75;100.00;97614.30;111817;1244;22502;-73
2023/09/26 06:06:10;;;;;;;8.30;5.40;;;;;;;18.72;100.00;97612.18;111679;1244;22502;-73
2023/09/26 06:08:41;;;;;;;8.60;5.50;;;;;;;18.85;100.00;97609.13;111776;1244;22509;-73
2023/09/26 06:11:12;;;;;;;6.70;5.50;;;;;;;19.01;100.00;97609.77;111742;1244;25289;-73
2023/09/26 06:13:42;;;;;;;14.10;6.20;;;;;;;19.12;100.00;97608.80;111817;1244;22464;-73
2023/09/26 06:16:11;;;;;;;9.60;5.40;;;;;;;19.21;100.00;97606.92;111870;1244;22516;-73
2023/09/26 06:18:40;;;;;;;8.50;5.60;;;;;;;19.43;100.00;97609.08;111867;1244;22608;-73
2023/09/26 06:21:13;;;;;;;6.20;5.10;;;;;;;19.63;100.00;97613.89;111874;1244;22489;-73
2023/09/26 06:23:48;;;;;;;7.00;5.30;;;;;;;19.74;100.00;97617.29;111825;1244;22530;-73
2023/09/26 06:26:20;;;;;;;9.80;6.00;;;;;;;19.55;100.00;97616.06;111861;1244;22522;-72
2023/09/26 06:28:51;;;;;;;9.60;5.90;;;;;;;19.33;100.00;97611.66;111858;1244;22503;-73
2023/09/26 06:31:21;;;;;;;10.10;5.80;;;;;;;19.17;100.00;97610.11;111855;1244;26453;-72
2023/09/26 06:33:53;;;;;;;7.00;5.20;;;;;;;19.16;100.00;97610.76;111861;1244;23023;-73
2023/09/26 06:36:25;;;;;;;10.70;5.60;;;;;;;19.20;100.00;97616.41;111896;1244;22560;-72
2023/09/26 06:38:55;;;;;;;9.50;5.60;;;;;;;19.37;100.00;97616.55;111840;1244;22631;-73
2023/09/26 06:41:24;;;;;;;7.80;5.70;;;;;;;19.53;100.00;97612.80;111768;1244;22596;-74
2023/09/26 06:43:54;;;;;;;7.60;5.40;;;;;;;19.73;100.00;97617.68;111836;1244;22515;-73
2023/09/26 06:46:24;;;;;;;6.70;5.50;;;;;;;20.02;100.00;97620.88;111837;1244;22521;-72
2023/09/26 06:48:52;;;;;;;10.30;5.70;;;;;;;20.25;100.00;97619.09;111837;1244;22512;-73
2023/09/26 06:51:21;;;;;;;6.80;5.10;;;;;;;20.40;100.00;97613.60;111748;1244;22620;-73
2023/09/26 06:53:50;;;;;;;7.00;5.70;;;;;;;20.60;100.00;97618.27;111806;1244;29591;-73
2023/09/26 06:56:18;;;;;;;6.90;5.10;;;;;;;20.77;100.00;97622.64;111827;1244;22521;-73
2023/09/26 06:58:46;;;;;;;6.30;5.20;;;;;;;20.91;100.00;97621.18;111796;1244;24152;-72
2023/09/26 07:01:18;;;;;;;8.00;5.40;;;;;;;21.02;100.00;97619.86;111936;1244;22566;-73
2023/09/26 07:03:47;;;;;;;7.00;5.40;;;;;;;21.15;100.00;97617.25;111776;1244;22535;-74
2023/09/26 07:06:16;;;;;;;9.30;5.60;;;;;;;21.35;100.00;97621.73;111838;1244;25417;-74
2023/09/26 07:08:45;;;;;;;8.60;5.10;;;;;;;21.52;100.00;97616.64;111827;1244;22517;-73
2023/09/26 07:11:14;;;;;;;6.20;4.90;;;;;;;21.64;99.89;97616.80;111825;1244;24315;-73
2023/09/26 07:13:42;;;;;;;7.00;5.20;;;;;;;21.76;99.92;97612.64;111822;1244;25327;-73
2023/09/26 07:16:11;;;;;;;7.80;5.40;;;;;;;21.88;99.47;97617.69;111867;1244;25340;-73
2023/09/26 07:18:40;;;;;;;6.70;5.20;;;;;;;21.98;99.27;97615.98;111802;1244;22684;-74
2023/09/26 07:21:09;;;;;;;7.40;5.50;;;;;;;22.05;98.39;97616.70;111850;1244;24265;-74
2023/09/26 07:23:38;;;;;;;7.80;5.10;;;;;;;22.15;98.77;97617.64;111784;1244;23065;-74
2023/09/26 07:26:12;;;;;;;6.50;4.70;;;;;;;22.34;98.26;97621.29;111554;1243;23665;-74
2023/09/26 07:28:41;;;;;;;7.70;5.10;;;;;;;22.47;97.40;97620.38;112381;1244;23209;-74
2023/09/26 07:31:10;;;;;;;;;;;;;;;22.57;96.79;97615.26;111654;1244;22499;-74
2023/09/26 07:33:40;;;;;;;9.70;5.00;;;;;;;22.63;95.79;97615.92;113465;1244;22994;-74
2023/09/26 07:36:09;;;;;;;8.30;5.40;;;;;;;22.66;95.07;97614.10;111840;1244;24191;-74
2023/09/26 07:38:38;;;;;;;6.90;5.20;;;;;;;22.49;94.01;97617.67;111686;1244;202116;-74
2023/09/26 07:41:07;;;;;;;11.20;5.60;;;;;;;22.37;93.55;97620.63;111816;1244;22569;-74
2023/09/26 07:43:35;;;;;;;7.50;5.10;;;;;;;22.31;93.60;97619.55;111815;1244;25273;-74
2023/09/26 07:46:07;;;;;;;8.20;4.80;;;;;;;22.35;93.72;97622.54;111855;1244;22497;-74
2023/09/26 07:48:36;;;;;;;7.60;5.10;;;;;;;22.29;93.02;97624.43;111841;1244;22492;-74
2023/09/26 07:51:05;;;;;;;;;;;;;;;22.21;92.80;97617.81;111862;1244;22490;-74
2023/09/26 07:53:43;;;;;;;8.30;5.30;;;;;;;22.17;92.38;97620.27;111758;1241;23254;-75
2023/09/26 07:56:11;;;;;;;12.00;5.70;;;;;;;22.15;92.47;97623.98;111837;1244;22502;-75
2023/09/26 07:58:40;;;;;;;8.20;5.00;;;;;;;22.17;92.45;97623.92;111824;1244;22497;-74
2023/09/26 08:01:09;;;;;;;11.90;5.20;;;;;;;22.26;92.30;97624.95;111843;1241;22591;-74
2023/09/26 08:03:38;;;;;;;6.70;5.50;;;;;;;22.28;92.19;97624.01;111808;1244;22512;-75
2023/09/26 08:06:06;;;;;;;;;;;;;;;22.37;92.57;97627.37;111858;1244;22554;-75
2023/09/26 08:08:35;;;;;;;8.40;5.50;;;;;;;22.44;91.87;97626.14;111823;1243;25160;-74
2023/09/26 08:11:08;;;;;;;6.70;5.10;;;;;;;22.47;91.60;97629.48;111853;1243;22517;-74
2023/09/26 08:13:38;;;;;;;7.40;4.70;;;;;;;22.48;91.56;97630.39;111836;1244;22503;-74
2023/09/26 08:16:06;;;;;;;8.90;5.40;;;;;;;22.64;91.52;97627.87;111841;1244;22511;-74
2023/09/26 08:18:34;;;;;;;9.10;5.40;;;;;;;22.74;91.70;97627.39;111825;1244;22986;-75
2023/09/26 08:21:03;;;;;;;8.60;5.60;;;;;;;22.82;90.69;97627.13;111840;1244;22539;-75
2023/09/26 08:23:31;;;;;;;9.00;5.60;;;;;;;22.82;89.81;97628.30;111802;1244;22515;-74
2023/09/26 08:26:03;;;;;;;8.60;5.60;;;;;;;22.77;89.53;97627.46;111852;1244;24221;-74
2023/09/26 08:28:32;;;;;;;9.30;5.20;;;;;;;22.87;89.95;97625.53;111845;1244;22600;-74
2023/09/26 08:31:05;;;;;;;11.70;5.30;;;;;;;23.03;89.57;97631.57;111837;1244;24222;-74
2023/09/26 08:33:34;;;;;;;8.10;5.20;;;;;;;22.84;88.39;97633.63;111861;1237;22517;-74
2023/09/26 08:36:02;;;;;;;;;;;;;;;22.66;87.35;97629.48;111918;1244;22822;-74
2023/09/26 08:38:32;;;;;;;8.70;5.20;;;;;;;22.50;87.65;97631.14;111846;1244;22549;-75
2023/09/26 08:41:06;;;;;;;7.70;5.00;;;;;;;22.62;88.35;97627.07;111853;1244;22502;-75
2023/09/26 08:43:38;;;;;;;9.10;5.60;;;;;;;22.78;88.03;97621.25;111881;1244;26520;-74
2023/09/26 08:46:07;;;;;;;7.20;5.20;;;;;;;22.75;87.20;97622.30;111845;1244;22488;-74
2023/09/26 08:48:38;;;;;;;7.70;5.20;;;;;;;22.96;87.93;97621.55;111840;1244;22537;-74
2023/09/26 08:51:07;;;;;;;10.10;5.20;;;;;;;23.24;87.52;97624.95;111813;1244;22529;-74
2023/09/26 08:53:36;;;;;;;6.90;5.10;;;;;;;23.46;86.74;97617.85;111778;1244;22505;-74
2023/09/26 08:56:08;;;;;;;8.70;5.00;;;;;;;23.68;86.17;97618.74;111829;1237;22514;-75
2023/09/26 08:58:41;;;;;;;9.80;4.80;;;;;;;23.78;85.20;97619.30;111893;1244;22516;-75
2023/09/26 09:01:10;;;;;;;6.60;4.80;;;;;;;23.89;84.29;97613.45;111896;1244;25317;-75
2023/09/26 09:03:40;;;;;;;8.90;5.20;;;;;;;24.01;83.34;97615.20;111832;1244;22504;-75
2023/09/26 09:06:09;;;;;;;6.50;4.80;;;;;;;24.04;81.94;97614.45;111885;1244;22513;-74
2023/09/26 09:08:38;;;;;;;8.40;5.40;;;;;;;24.14;82.39;97609.58;111842;1244;22518;-75
2023/09/26 09:11:07;;;;;;;7.20;4.90;;;;;;;24.22;80.95;97611.13;111808;1244;22519;-75
2023/09/26 09:13:37;;;;;;;6.30;4.90;;;;;;;24.29;80.95;97608.45;111817;1244;22638;-75
2023/09/26 09:16:10;;;;;;;8.60;4.50;;;;;;;24.31;79.97;97607.44;111833;1244;24601;-75
2023/09/26 09:18:43;;;;;;;6.10;4.40;;;;;;;24.33;80.21;97607.11;111840;1244;22713;-75
2023/09/26 09:21:25;;;;;;;11.30;5.10;;;;;;;24.42;80.47;97605.92;111838;1244;22523;-75
2023/09/26 09:23:58;;;;;;;7.80;5.20;;;;;;;24.55;80.83;97602.20;111809;1244;22523;-74
2023/09/26 09:26:34;;;;;;;9.80;5.00;;;;;;;24.65;80.10;97600.29;111740;1244;22587;-75
2023/09/26 09:29:18;;;;;;;8.00;5.10;;;;;;;24.64;79.88;97596.60;111456;1243;24192;-74
2023/09/26 09:31:47;;;;;;;8.60;5.00;;;;;;;24.65;79.72;97592.79;111653;1244;23010;-75
2023/09/26 09:34:17;;;;;;;9.50;5.60;;;;;;;24.67;78.83;97595.01;111693;1244;22817;-75
2023/09/26 09:36:44;;;;;;;;;;;;;;;24.48;77.89;97594.63;111716;1244;22486;-76
2023/09/26 09:39:13;;;;;;;13.00;5.50;;;;;;;24.32;78.76;97592.20;111857;1244;24221;-75
2023/09/26 09:41:41;;;;;;;14.40;5.70;;;;;;;24.12;78.40;97590.84;111824;1244;25222;-75
2023/09/26 09:44:12;;;;;;;7.40;5.50;;;;;;;23.94;79.24;97589.48;111799;1244;27492;-70
2023/09/26 09:46:43;;;;;;;11.20;5.70;;;;;;;23.98;80.24;97590.52;111819;1244;25345;-71
2023/09/26 09:49:12;;;;;;;8.60;5.30;;;;;;;23.99;80.41;97589.47;111826;1244;22542;-71
2023/09/26 09:51:42;;;;;;;7.50;5.60;;;;;;;24.04;80.32;97591.61;111825;1244;22544;-71
2023/09/26 09:54:13;;;;;;;9.80;5.40;;;;;;;24.06;80.56;97584.64;111792;1244;22534;-71
2023/09/26 09:56:45;;;;;;;8.00;5.60;;;;;;;24.21;81.16;97587.63;111892;1244;22521;-71
2023/09/26 09:59:15;;;;;;;8.60;5.60;;;;;;;24.36;81.50;97587.92;111831;1241;22504;-71
2023/09/26 10:01:45;;;;;;;13.30;6.20;;;;;;;24.34;79.99;97586.01;111836;1244;25563;-70
2023/09/26 10:04:15;;;;;;;9.00;5.40;;;;;;;24.14;79.86;97581.22;111862;1244;25097;-70
2023/09/26 10:06:44;;;;;;;10.20;6.10;;;;;;;24.16;80.67;97581.36;111843;1244;22528;-70
2023/09/26 10:09:13;;;;;;;10.40;5.80;;;;;;;24.19;80.52;97582.31;111865;1244;22460;-71
2023/09/26 10:11:43;;;;;;;9.50;5.50;;;;;;;24.27;81.24;97580.55;111852;1244;24215;-71
2023/09/26 10:14:22;;;;;;;13.40;6.00;;;;;;;24.39;81.55;97578.34;111859;1244;22528;-71
2023/09/26 10:16:51;;;;;;;7.90;5.80;;;;;;;24.48;81.61;97574.41;111866;1244;22584;-71
2023/09/26 10:19:22;;;;;;;10.80;6.60;;;;;;;24.54;81.68;97570.23;111874;1244;22515;-71
2023/09/26 10:21:52;;;;;;;11.60;6.50;;;;;;;24.51;81.34;97573.34;111868;1244;22650;-72
2023/09/26 10:24:28;;;;;;;12.10;6.90;;;;;;;24.49;81.84;97574.05;111842;1244;22615;-71
2023/09/26 10:27:06;;;;;;;10.50;6.20;;;;;;;24.43;81.62;97565.91;111811;1244;22479;-71
2023/09/26 10:29:38;;;;;;;10.90;6.90;;;;;;;24.43;82.09;97570.00;111840;1244;22553;-70
2023/09/26 10:32:10;;;;;;;12.30;6.90;;;;;;;24.33;81.89;97571.73;111852;1244;22516;-71
2023/09/26 10:34:39;;;;;;;9.10;7.20;;;;;;;24.33;83.02;97567.39;111819;1244;22512;-71
2023/09/26 10:37:18;;;;;;;10.40;7.50;;;;;;;24.38;83.51;97569.11;111843;1244;24299;-70
2023/09/26 10:39:47;;;;;;;10.90;7.50;;;;;;;24.40;84.01;97565.30;111859;1243;25222;-71
2023/09/26 10:42:19;;;;;;;10.10;6.50;;;;;;;24.47;84.37;97561.52;111864;1240;23058;-72
2023/09/26 10:44:50;;;;;;;9.20;7.00;;;;;;;24.45;84.08;97561.63;111887;1243;22510;-71
2023/09/26 10:47:21;;;;;;;9.60;6.70;;;;;;;24.44;84.26;97560.59;111875;1244;22502;-71
2023/09/26 10:49:49;;;;;;;10.90;7.00;;;;;;;24.46;84.74;97561.02;111828;1244;25636;-72
2023/09/26 10:52:18;;;;;;;8.10;7.00;;;;;;;24.46;84.70;97556.61;111612;1244;25071;-71
2023/09/26 10:55:03;;;;;;;10.00;6.40;;;;;;;24.41;84.42;97561.13;111718;1244;24210;-71
2023/09/26 10:57:32;;;;;;;8.40;6.80;;;;;;;24.41;84.24;97561.67;112992;1244;25439;-73
2023/09/26 11:00:10;;;;;;;10.50;6.70;;;;;;;24.38;84.46;97555.86;111645;1244;22501;-74
2023/09/26 11:02:47;;;;;;;9.80;7.30;;;;;;;24.46;85.10;97556.52;112982;1244;23337;-73
2023/09/26 11:05:17;;;;;;;9.90;6.80;;;;;;;24.49;84.60;97557.94;112542;1244;22581;-73
2023/09/26 11:07:47;;;;;;;8.00;6.50;;;;;;;24.50;84.44;97558.38;111686;1244;25531;-72
2023/09/26 11:10:17;;;;;;;7.50;6.40;;;;;;;24.53;84.79;97556.50;111813;1243;22488;-72
2023/09/26 11:12:47;;;;;;;8.40;6.60;;;;;;;24.59;85.09;97561.32;111839;1244;22519;-73
2023/09/26 11:15:16;;;;;;;9.60;6.60;;;;;;;24.65;85.16;97558.02;111859;1244;22513;-72
2023/09/26 11:17:48;;;;;;;;;;;;;;;24.70;85.02;97558.34;111871;1244;26402;-73
2023/09/26 11:20:16;;;;;;;8.60;7.10;;;;;;;24.68;84.76;97558.15;111861;1244;22640;-73
2023/09/26 11:22:51;;;;;;;9.40;7.40;;;;;;;24.66;84.71;97556.78;111814;1244;22524;-72
2023/09/26 11:25:19;;;;;;;9.60;7.50;;;;;;;24.71;85.03;97550.70;111937;1244;22516;-72
2023/09/26 11:27:48;;;;;;;10.70;7.20;;;;;;;24.78;85.39;97551.14;111831;1240;22555;-72
2023/09/26 11:30:20;;;;;;;10.20;7.40;;;;;;;24.83;85.15;97547.45;111795;1244;22499;-72
2023/09/26 11:32:51;;;;;;;10.70;7.60;;;;;;;24.83;84.83;97543.28;111832;1244;24071;-72